createdAt,value
2019-03-11T00:01:00.324Z,12.00
2019-03-11T00:03:34.930Z,12.00
2019-03-11T00:06:08.694Z,12.00
2019-03-11T00:08:42.600Z,12.00
2019-03-11T00:11:16.007Z,12.10
2019-03-11T00:13:50.679Z,12.10
2019-03-11T00:16:24.339Z,12.10
2019-03-11T00:18:58.043Z,12.10
2019-03-11T00:21:33.295Z,12.10
2019-03-11T00:24:08.819Z,12.10
2019-03-11T00:26:41.156Z,12.10
2019-03-11T00:32:09.819Z,12.00
2019-03-11T00:34:43.367Z,12.00
2019-03-11T00:37:18.880Z,12.00
2019-03-11T00:39:53.314Z,12.00
2019-03-11T00:42:26.985Z,12.00
2019-03-11T00:45:00.676Z,12.00
2019-03-11T00:47:34.680Z,12.00
2019-03-11T00:50:10.647Z,12.00
2019-03-11T00:52:44.246Z,12.00
2019-03-11T00:55:17.812Z,12.00
2019-03-11T00:57:51.438Z,12.00
2019-03-11T01:00:35.438Z,12.00
2019-03-11T01:03:09.129Z,12.00
2019-03-11T01:05:43.557Z,12.00
2019-03-11T01:08:17.830Z,12.00
2019-03-11T01:10:51.550Z,12.00
2019-03-11T01:13:25.868Z,12.00
2019-03-11T01:15:59.511Z,12.00
2019-03-11T01:18:32.918Z,12.00
2019-03-11T01:21:06.645Z,12.00
2019-03-11T01:23:40.148Z,12.00
2019-03-11T01:26:13.760Z,12.10
2019-03-11T01:28:47.441Z,12.10
2019-03-11T01:31:20.987Z,12.10
2019-03-11T01:33:55.823Z,12.10
2019-03-11T01:36:29.800Z,12.20
2019-03-11T01:39:03.093Z,12.20
2019-03-11T01:41:38.457Z,12.20
2019-03-11T01:44:13.086Z,12.20
2019-03-11T01:46:47.687Z,12.20
2019-03-11T01:49:23.766Z,12.20
2019-03-11T01:51:56.003Z,12.30
2019-03-11T01:54:29.822Z,12.30
2019-03-11T01:57:03.434Z,12.30
2019-03-11T01:59:37.337Z,12.30
2019-03-11T02:02:11.696Z,12.30
2019-03-11T02:04:46.245Z,12.30
2019-03-11T02:07:19.978Z,12.30
2019-03-11T02:09:53.715Z,12.30
2019-03-11T02:12:28.148Z,12.30
2019-03-11T02:15:01.738Z,12.40
2019-03-11T02:17:36.358Z,12.30
2019-03-11T02:20:12.148Z,12.40
2019-03-11T02:22:45.881Z,12.40
2019-03-11T02:25:20.845Z,12.40
2019-03-11T02:27:54.440Z,12.40
2019-03-11T02:30:27.896Z,12.40
2019-03-11T02:33:01.448Z,12.40
2019-03-11T02:35:36.104Z,12.40
2019-03-11T02:38:10.021Z,12.40
2019-03-11T02:40:44.524Z,12.50
2019-03-11T02:43:18.794Z,12.50
2019-03-11T02:45:52.429Z,12.50
2019-03-11T02:48:26.152Z,12.50
2019-03-11T02:50:59.662Z,12.50
2019-03-11T02:53:33.238Z,12.60
2019-03-11T02:56:06.678Z,12.60
2019-03-11T02:58:40.723Z,12.60
2019-03-11T03:01:15.951Z,12.60
2019-03-11T03:03:59.992Z,12.60
2019-03-11T03:06:33.530Z,12.60
2019-03-11T03:09:10.416Z,12.60
2019-03-11T03:11:44.135Z,12.70
2019-03-11T03:14:17.871Z,12.70
2019-03-11T03:16:52.361Z,12.70
2019-03-11T03:19:26.170Z,12.70
2019-03-11T03:22:00.623Z,12.70
2019-03-11T03:24:34.097Z,12.80
2019-03-11T03:27:07.828Z,12.80
2019-03-11T03:29:41.447Z,12.80
2019-03-11T03:32:16.830Z,12.90
2019-03-11T03:34:50.501Z,13.00
2019-03-11T03:37:24.146Z,13.00
2019-03-11T03:39:57.630Z,13.00
2019-03-11T03:42:32.829Z,13.00
2019-03-11T03:45:26.876Z,12.90
2019-03-11T03:48:01.585Z,12.90
2019-03-11T03:50:39.466Z,12.90
2019-03-11T03:53:13.105Z,12.90
2019-03-11T03:55:46.462Z,12.90
2019-03-11T03:58:21.105Z,12.90
2019-03-11T04:00:54.924Z,12.90
2019-03-11T04:03:28.331Z,13.00
2019-03-11T04:06:01.890Z,13.10
2019-03-11T04:08:35.605Z,13.10
2019-03-11T04:11:09.090Z,13.00
2019-03-11T04:13:43.285Z,13.00
2019-03-11T04:16:17.471Z,13.10
2019-03-11T04:18:55.657Z,13.10
2019-03-11T04:21:29.489Z,13.20
2019-03-11T04:24:03.087Z,13.20
2019-03-11T04:26:36.687Z,13.30
2019-03-11T04:29:10.387Z,13.30
2019-03-11T04:31:43.855Z,13.30
2019-03-11T04:34:17.419Z,13.40
2019-03-11T04:36:51.039Z,13.40
2019-03-11T04:39:24.771Z,13.60
2019-03-11T04:41:59.721Z,13.60
2019-03-11T04:44:35.272Z,13.60
2019-03-11T04:47:12.492Z,13.70
2019-03-11T04:49:46.333Z,13.70
2019-03-11T04:52:19.705Z,13.60
2019-03-11T04:54:54.863Z,13.50
2019-03-11T04:57:28.490Z,13.50
2019-03-11T05:00:02.009Z,13.40
2019-03-11T05:02:35.612Z,13.50
2019-03-11T05:08:06.746Z,13.50
2019-03-11T05:10:40.623Z,13.50
2019-03-11T05:13:14.306Z,13.50
2019-03-11T05:15:48.759Z,13.50
2019-03-11T05:18:23.763Z,13.50
2019-03-11T05:20:57.432Z,13.50
2019-03-11T05:23:31.284Z,13.60
2019-03-11T05:26:04.915Z,13.60
2019-03-11T05:28:38.795Z,13.60
2019-03-11T05:31:14.333Z,13.70
2019-03-11T05:36:42.840Z,13.90
2019-03-11T05:39:15.011Z,13.90
2019-03-11T05:41:47.486Z,14.00
2019-03-11T05:44:19.578Z,14.30
2019-03-11T05:46:51.564Z,14.60
2019-03-11T05:49:23.515Z,14.70
2019-03-11T05:51:57.263Z,14.60
2019-03-11T05:54:29.657Z,14.40
2019-03-11T05:59:59.133Z,14.10
2019-03-11T06:02:32.581Z,14.00
2019-03-11T06:05:04.632Z,14.00
2019-03-11T06:07:36.714Z,14.00
2019-03-11T06:10:11.045Z,13.90
2019-03-11T06:12:43.261Z,14.00
2019-03-11T06:15:18.395Z,14.40
2019-03-11T06:17:50.590Z,14.70
2019-03-11T06:20:26.722Z,14.70
2019-03-11T06:23:00.534Z,14.60
2019-03-11T06:25:32.744Z,14.50
2019-03-11T06:28:04.802Z,14.30
2019-03-11T06:30:37.055Z,14.30
2019-03-11T06:33:10.136Z,14.30
2019-03-11T06:35:42.209Z,14.40
2019-03-11T06:38:14.250Z,14.40
2019-03-11T06:40:46.266Z,14.50
2019-03-11T06:43:33.326Z,14.40
2019-03-11T06:46:05.396Z,14.30
2019-03-11T06:48:37.517Z,14.20
2019-03-11T06:51:09.802Z,14.10
2019-03-11T06:53:41.906Z,14.10
2019-03-11T06:56:14.091Z,14.20
2019-03-11T06:58:47.290Z,14.20
2019-03-11T07:01:19.367Z,14.20
2019-03-11T07:03:51.461Z,14.10
2019-03-11T07:06:23.416Z,14.10
2019-03-11T07:08:55.313Z,14.10
2019-03-11T07:11:27.516Z,14.10
2019-03-11T07:14:00.602Z,14.10
2019-03-11T07:19:26.877Z,14.20
2019-03-11T07:21:58.934Z,14.20
2019-03-11T07:24:32.082Z,14.20
2019-03-11T07:27:04.618Z,14.20
2019-03-11T07:29:36.753Z,14.20
2019-03-11T07:32:08.689Z,14.10
2019-03-11T07:34:40.792Z,14.10
2019-03-11T07:37:18.795Z,14.10
2019-03-11T07:39:51.863Z,14.20
2019-03-11T07:43:28.354Z,14.20
2019-03-11T07:46:00.317Z,14.20
2019-03-11T07:48:32.580Z,14.30
2019-03-11T08:02:41.395Z,14.50
2019-03-11T08:05:14.985Z,14.40
2019-03-11T08:07:52.471Z,14.50
2019-03-11T08:10:28.865Z,14.40
2019-03-11T08:13:03.076Z,14.50
2019-03-11T08:15:36.755Z,14.50
2019-03-11T08:18:10.969Z,14.50
2019-03-11T08:20:45.491Z,14.50
2019-03-11T08:23:20.509Z,14.50
2019-03-11T08:25:56.427Z,14.50
2019-03-11T08:28:30.319Z,14.50
2019-03-11T08:31:05.151Z,14.50
2019-03-11T08:33:38.622Z,14.50
2019-03-11T08:36:12.943Z,14.50
2019-03-11T08:38:46.434Z,14.50
2019-03-11T08:41:20.374Z,14.60
2019-03-11T08:43:53.888Z,14.60
2019-03-11T08:46:27.734Z,14.60
2019-03-11T08:49:01.328Z,14.60
2019-03-11T08:51:34.862Z,14.60
2019-03-11T08:54:08.787Z,14.60
2019-03-11T08:56:44.542Z,14.60
2019-03-11T08:59:21.240Z,14.60
2019-03-11T09:01:54.730Z,14.70
2019-03-11T09:04:28.329Z,14.60
2019-03-11T09:07:03.148Z,14.60
2019-03-11T09:09:37.867Z,14.60
2019-03-11T09:12:11.356Z,14.70
2019-03-11T09:14:45.000Z,14.60
2019-03-11T09:17:18.627Z,14.70
2019-03-11T09:19:52.376Z,14.70
2019-03-11T09:22:27.633Z,14.70
2019-03-11T09:25:01.283Z,14.70
2019-03-11T09:27:35.622Z,14.70
2019-03-11T09:30:11.840Z,14.70
2019-03-11T09:32:45.497Z,14.70
2019-03-11T09:35:19.391Z,14.70
2019-03-11T09:37:53.841Z,14.70
2019-03-11T09:40:27.849Z,14.70
2019-03-11T09:43:01.456Z,14.80
2019-03-11T09:45:35.417Z,14.70
2019-03-11T09:48:09.267Z,14.80
2019-03-11T09:50:42.742Z,14.80
2019-03-11T09:53:16.232Z,14.80
2019-03-11T09:55:50.052Z,14.80
2019-03-11T09:58:24.732Z,14.80
2019-03-11T10:00:58.405Z,14.80
2019-03-11T10:03:33.012Z,14.80
2019-03-11T10:06:07.042Z,14.80
2019-03-11T10:08:40.197Z,14.80
2019-03-11T10:11:13.729Z,14.80
2019-03-11T10:13:47.419Z,14.80
2019-03-11T10:16:21.339Z,14.80
2019-03-11T10:18:54.982Z,14.80
2019-03-11T10:21:28.552Z,14.80
2019-03-11T10:24:03.627Z,14.80
2019-03-11T10:26:37.387Z,14.80
2019-03-11T10:29:11.139Z,14.80
2019-03-11T10:34:43.302Z,14.80
2019-03-11T10:37:16.984Z,14.80
2019-03-11T10:39:50.552Z,14.80
2019-03-11T10:42:24.236Z,14.80
2019-03-11T10:44:58.705Z,14.80
2019-03-11T10:47:32.250Z,14.80
2019-03-11T10:50:07.235Z,14.80
2019-03-11T10:52:41.428Z,14.80
2019-03-11T10:55:16.939Z,14.80
2019-03-11T10:57:51.011Z,14.80
2019-03-11T11:00:35.000Z,14.80
2019-03-11T11:03:28.969Z,14.80
2019-03-11T11:06:03.547Z,14.70
2019-03-11T11:08:37.281Z,14.80
2019-03-11T11:11:11.969Z,14.70
2019-03-11T11:13:47.745Z,14.70
2019-03-11T11:16:21.463Z,14.70
2019-03-11T11:18:55.983Z,14.80
2019-03-11T11:21:31.353Z,14.70
2019-03-11T11:24:06.220Z,14.70
2019-03-11T11:26:39.984Z,14.70
2019-03-11T11:29:16.035Z,14.70
2019-03-11T11:31:49.631Z,14.80
2019-03-11T11:34:24.224Z,14.70
2019-03-11T11:36:57.827Z,14.70
2019-03-11T11:39:31.396Z,14.70
2019-03-11T11:42:04.787Z,14.70
2019-03-11T11:44:38.496Z,14.70
2019-03-11T11:47:13.045Z,14.70
2019-03-11T11:49:47.077Z,14.70
2019-03-11T11:52:20.704Z,14.70
2019-03-11T11:54:54.335Z,14.70
2019-03-11T11:57:28.245Z,14.70
2019-03-11T12:00:03.046Z,14.70
2019-03-11T12:02:37.758Z,14.70
2019-03-11T12:05:13.279Z,14.70
2019-03-11T12:07:46.993Z,14.70
2019-03-11T12:10:25.641Z,14.70
2019-03-11T12:12:59.306Z,14.70
2019-03-11T12:15:34.197Z,14.70
2019-03-11T12:18:07.818Z,14.70
2019-03-11T12:20:45.692Z,14.70
2019-03-11T12:23:19.652Z,14.70
2019-03-11T12:25:54.820Z,14.70
2019-03-11T12:28:26.837Z,14.60
2019-03-11T12:31:00.340Z,14.70
2019-03-11T12:36:28.438Z,14.70
2019-03-11T12:39:00.922Z,14.70
2019-03-11T12:41:36.118Z,14.60
2019-03-11T12:44:10.746Z,14.60
2019-03-11T12:46:44.473Z,14.60
2019-03-11T12:49:21.487Z,14.60
2019-03-11T12:51:55.339Z,14.60
2019-03-11T12:54:29.300Z,14.60
2019-03-11T12:57:08.700Z,14.60
2019-03-11T12:59:41.648Z,14.60
2019-03-11T13:02:15.271Z,14.60
2019-03-11T13:04:49.350Z,14.60
2019-03-11T13:07:22.891Z,14.60
2019-03-11T13:09:57.811Z,14.60
2019-03-11T13:12:31.412Z,14.50
2019-03-11T13:15:04.778Z,14.50
2019-03-11T13:17:38.729Z,14.50
2019-03-11T13:20:14.836Z,14.50
2019-03-11T13:22:49.349Z,14.50
2019-03-11T13:25:23.257Z,14.50
2019-03-11T13:27:57.519Z,14.50
2019-03-11T13:30:31.399Z,14.50
2019-03-11T13:33:05.159Z,14.50
2019-03-11T13:35:39.947Z,14.50
2019-03-11T13:38:14.837Z,14.50
2019-03-11T13:40:49.703Z,14.50
2019-03-11T13:43:23.318Z,14.50
2019-03-11T13:45:57.403Z,14.50
2019-03-11T13:48:31.720Z,14.50
2019-03-11T13:51:05.496Z,14.50
2019-03-11T13:53:39.016Z,14.50
2019-03-11T13:56:16.273Z,14.50
2019-03-11T13:58:52.037Z,14.40
2019-03-11T14:01:25.721Z,14.40
2019-03-11T14:04:00.608Z,14.40
2019-03-11T14:06:37.353Z,14.40
2019-03-11T14:09:11.286Z,14.40
2019-03-11T14:11:46.473Z,14.40
2019-03-11T14:14:20.891Z,14.40
2019-03-11T14:16:58.516Z,14.40
2019-03-11T14:19:32.498Z,14.30
2019-03-11T14:22:09.644Z,14.40
2019-03-11T14:24:44.778Z,14.30
2019-03-11T14:27:20.568Z,14.30
2019-03-11T14:29:54.973Z,14.30
2019-03-11T14:32:32.838Z,14.20
2019-03-11T14:35:09.696Z,14.20
2019-03-11T14:37:45.479Z,14.20
2019-03-11T14:40:22.769Z,14.20
2019-03-11T14:42:57.906Z,14.20
2019-03-11T14:45:38.761Z,14.20
2019-03-11T14:48:14.240Z,14.20
2019-03-11T14:50:54.920Z,14.20
2019-03-11T14:53:28.754Z,14.20
2019-03-11T14:56:03.520Z,14.20
2019-03-11T14:58:40.300Z,14.20
2019-03-11T15:01:15.198Z,14.10
2019-03-11T15:03:55.094Z,14.20
2019-03-11T15:06:31.658Z,14.10
2019-03-11T15:09:09.256Z,14.10
2019-03-11T15:11:45.309Z,14.10
2019-03-11T15:14:21.780Z,14.10
2019-03-11T15:16:56.603Z,14.10
2019-03-11T15:19:30.266Z,14.10
2019-03-11T15:22:04.687Z,14.10
2019-03-11T15:24:39.279Z,14.10
2019-03-11T15:27:12.976Z,14.10
2019-03-11T15:29:46.652Z,14.10
2019-03-11T15:32:20.651Z,14.00
2019-03-11T15:34:54.203Z,14.00
2019-03-11T15:37:27.884Z,14.00
2019-03-11T15:40:01.525Z,14.00
2019-03-11T15:42:41.620Z,14.00
2019-03-11T15:45:22.433Z,14.00
2019-03-11T15:47:57.397Z,14.00
2019-03-11T15:50:42.048Z,13.90
2019-03-11T15:53:17.129Z,13.90
2019-03-11T15:56:08.572Z,13.90
2019-03-11T15:58:43.897Z,13.80
2019-03-11T16:01:20.583Z,13.80
2019-03-11T16:03:55.961Z,13.80
2019-03-11T16:06:32.371Z,13.80
2019-03-11T16:09:10.291Z,13.80
2019-03-11T16:11:48.087Z,13.80
2019-03-11T16:14:25.167Z,13.90
2019-03-11T16:17:00.077Z,13.80
2019-03-11T16:19:34.125Z,13.80
2019-03-11T16:22:07.753Z,13.80
2019-03-11T16:24:42.224Z,13.80
2019-03-11T16:27:15.822Z,13.80
2019-03-11T16:29:52.920Z,13.80
2019-03-11T16:32:27.539Z,13.70
2019-03-11T16:35:02.400Z,13.70
2019-03-11T16:37:36.051Z,13.80
2019-03-11T16:40:15.414Z,13.70
2019-03-11T16:42:50.368Z,13.80
2019-03-11T16:45:24.207Z,13.70
2019-03-11T16:47:59.099Z,13.70
2019-03-11T16:50:35.058Z,13.70
2019-03-11T16:53:08.789Z,13.60
2019-03-11T16:55:48.366Z,13.60
2019-03-11T17:01:34.297Z,13.50
2019-03-11T17:04:09.286Z,13.60
2019-03-11T17:06:43.960Z,13.60
2019-03-11T17:09:20.222Z,13.60
2019-03-11T17:11:53.977Z,13.50
2019-03-11T17:14:27.720Z,13.50
2019-03-11T17:17:03.908Z,13.50
2019-03-11T17:19:37.855Z,13.40
2019-03-11T17:22:13.591Z,13.40
2019-03-11T17:24:50.620Z,13.40
2019-03-11T17:27:25.544Z,13.50
2019-03-11T17:30:00.606Z,13.40
2019-03-11T17:32:35.043Z,13.40
2019-03-11T17:35:09.694Z,13.40
2019-03-11T17:37:43.660Z,13.40
2019-03-11T17:40:22.245Z,13.40
2019-03-11T17:42:55.891Z,13.40
2019-03-11T17:45:29.616Z,13.40
2019-03-11T17:48:03.239Z,13.40
2019-03-11T17:50:36.888Z,13.50
2019-03-11T17:53:19.609Z,13.40
2019-03-11T17:55:45.675Z,13.40
2019-03-11T17:58:19.317Z,13.40
2019-03-11T18:00:55.816Z,13.40
2019-03-11T18:03:28.266Z,13.40
2019-03-11T18:06:11.100Z,13.40
2019-03-11T18:08:36.821Z,13.40
2019-03-11T18:11:11.295Z,13.30
2019-03-11T18:13:44.819Z,13.30
2019-03-11T18:16:18.430Z,13.40
2019-03-11T18:18:54.588Z,13.30
2019-03-11T18:21:27.590Z,13.30
2019-03-11T18:24:01.185Z,13.30
2019-03-11T18:26:34.778Z,13.30
2019-03-11T18:29:09.454Z,13.30
2019-03-11T18:31:43.037Z,13.30
2019-03-11T18:34:17.706Z,13.30
2019-03-11T18:36:51.371Z,13.20
2019-03-11T18:39:25.352Z,13.20
2019-03-11T18:41:58.923Z,13.20
2019-03-11T18:44:32.492Z,13.20
2019-03-11T18:47:06.306Z,13.20
2019-03-11T18:49:40.283Z,13.20
2019-03-11T18:52:14.823Z,13.20
2019-03-11T18:54:48.216Z,13.20
2019-03-11T18:57:21.787Z,13.10
2019-03-11T18:59:55.298Z,13.10
2019-03-11T19:02:29.893Z,13.10
2019-03-11T19:05:03.589Z,13.10
2019-03-11T19:07:37.242Z,13.00
2019-03-11T19:10:12.493Z,13.00
2019-03-11T19:12:46.326Z,13.00
2019-03-11T19:15:20.918Z,13.00
2019-03-11T19:17:54.878Z,13.00
2019-03-11T19:20:28.453Z,13.00
2019-03-11T19:23:01.976Z,13.00
2019-03-11T19:25:35.575Z,13.00
2019-03-11T19:28:09.139Z,13.00
2019-03-11T19:30:42.510Z,13.00
2019-03-11T19:33:16.069Z,12.90
2019-03-11T19:35:50.012Z,12.80
2019-03-11T19:38:23.668Z,12.80
2019-03-11T19:40:57.186Z,12.80
2019-03-11T19:43:30.699Z,12.70
2019-03-11T19:46:05.149Z,12.70
2019-03-11T19:48:38.924Z,12.70
2019-03-11T19:51:12.461Z,12.70
2019-03-11T19:53:46.004Z,12.70
2019-03-11T19:56:19.471Z,12.60
2019-03-11T19:58:54.519Z,12.60
2019-03-11T20:01:26.598Z,12.70
2019-03-11T20:04:00.113Z,12.60
2019-03-11T20:06:33.772Z,12.70
2019-03-11T20:09:10.104Z,12.70
2019-03-11T20:11:43.726Z,12.70
2019-03-11T20:14:17.423Z,12.70
2019-03-11T20:16:50.979Z,12.70
2019-03-11T20:19:24.603Z,12.70
2019-03-11T20:21:57.972Z,12.70
2019-03-11T20:24:31.599Z,12.70
2019-03-11T20:27:05.131Z,12.70
2019-03-11T20:29:38.831Z,12.70
2019-03-11T20:32:12.663Z,12.70
2019-03-11T20:34:49.149Z,12.70
2019-03-11T20:37:21.674Z,12.70
2019-03-11T20:39:55.198Z,12.70
2019-03-11T20:42:28.759Z,12.70
2019-03-11T20:45:02.313Z,12.70
2019-03-11T20:47:37.494Z,12.70
2019-03-11T20:50:12.778Z,12.70
2019-03-11T20:52:46.306Z,12.70
2019-03-11T20:55:23.170Z,12.70
2019-03-11T20:57:57.078Z,12.60
2019-03-11T21:00:30.859Z,12.60
2019-03-11T21:03:04.536Z,12.60
2019-03-11T21:08:41.330Z,12.60
2019-03-11T21:11:15.254Z,12.50
2019-03-11T21:13:48.921Z,12.60
2019-03-11T21:16:22.554Z,12.50
2019-03-11T21:18:56.087Z,12.50
2019-03-11T21:21:29.668Z,12.50
2019-03-11T21:24:03.259Z,12.50
2019-03-11T21:26:36.934Z,12.50
2019-03-11T21:29:10.421Z,12.40
2019-03-11T21:31:43.865Z,12.40
2019-03-11T21:34:17.369Z,12.40
2019-03-11T21:36:51.154Z,12.40
2019-03-11T21:39:25.208Z,12.40
2019-03-11T21:41:59.245Z,12.40
2019-03-11T21:44:32.773Z,12.40
2019-03-11T21:47:06.654Z,12.30
2019-03-11T21:49:40.670Z,12.30
2019-03-11T21:52:14.324Z,12.30
2019-03-11T21:54:48.465Z,12.30
2019-03-11T21:57:21.937Z,12.30
2019-03-11T21:59:55.877Z,12.30
2019-03-11T22:02:29.837Z,12.20
2019-03-11T22:05:03.851Z,12.20
2019-03-11T22:07:39.317Z,12.20
2019-03-11T22:10:14.701Z,12.20
2019-03-11T22:12:50.033Z,12.20
2019-03-11T22:15:27.449Z,12.20
2019-03-11T22:18:01.090Z,12.10
2019-03-11T22:20:34.751Z,12.10
2019-03-11T22:23:08.424Z,12.10
2019-03-11T22:25:41.922Z,12.10
2019-03-11T22:28:15.492Z,12.10
2019-03-11T22:30:49.126Z,12.10
2019-03-11T22:33:22.633Z,12.20
2019-03-11T22:35:56.094Z,12.10
2019-03-11T22:38:29.656Z,12.10
2019-03-11T22:41:03.598Z,12.10
2019-03-11T22:43:38.031Z,12.10
2019-03-11T22:46:11.597Z,12.10
2019-03-11T22:48:45.147Z,12.10
2019-03-11T22:51:18.635Z,12.10
2019-03-11T22:53:52.232Z,12.10
2019-03-11T22:56:26.123Z,12.10
2019-03-11T22:58:59.687Z,12.00
2019-03-11T23:01:33.132Z,12.10
2019-03-11T23:04:06.789Z,12.10
2019-03-11T23:06:40.391Z,12.00
2019-03-11T23:09:14.319Z,12.00
2019-03-11T23:11:47.837Z,12.00
2019-03-11T23:14:21.054Z,12.00
2019-03-11T23:16:54.443Z,12.00
2019-03-11T23:19:27.775Z,11.90
2019-03-11T23:22:01.287Z,11.90
2019-03-11T23:24:34.712Z,11.90
2019-03-11T23:27:08.023Z,11.80
2019-03-11T23:29:42.602Z,11.80
2019-03-11T23:32:18.594Z,11.80
2019-03-11T23:34:52.257Z,11.80
2019-03-11T23:37:26.699Z,11.80
2019-03-11T23:40:00.392Z,11.80
2019-03-11T23:42:33.729Z,11.80
2019-03-11T23:45:11.774Z,11.80
2019-03-11T23:47:46.056Z,11.80
2019-03-11T23:50:19.800Z,11.90
2019-03-11T23:52:53.622Z,11.90
2019-03-11T23:55:27.315Z,11.90
2019-03-11T23:58:01.671Z,12.00
